Lowest pressure

Not for real navigation. The accuracy of this data is not assured See disclaimer for more information



ICAO NAME COUNTRY WIND Kt GUST Kt VIS m TEMP/DEW C BARO METAR
ULAA Arhangel’Sk Russia 5 0 9999 -1/-2 28.88 ULAA 170930Z 33005KT 190V350 9999 -SHSN OVC006CB M01/M02 Q0978 R26/590338 NOSIG RMK QBB190 QFE732/09
UUYY Syktyvkar Russia 6 0 1100 -4/-5 28.94 UUYY 170930Z 18006KT 1100 1000SW R18/1100N SHSN SCT010 BKN020CB M04/M05 Q0980 R18/450335 NOSIG RMK Q
CYDP Nain, Nfld Canada 0 0 24000 -14/-15 29.15 CYDP 170900Z 00000KT 15SM FEW085 SCT110 BKN230 M14/M15 A2915 RMK AS1AC2CS2 SLP872
CYMH Mary’s Harbour Canada 6 0 14400 -2/-3 29.15 CYMH 170918Z AUTO 25006KT 9SM OVC055 M02/M03 A2915 RMK SLP872
CYCA Cartwright Man Canada 8 0 14400 -3/-5 29.17 CYCA 170928Z AUTO 30008KT 9SM -SN BKN015 OVC046 M03/M05 A2917 RMK SLP880

Show more